Terminal Aerodrome Forecast
Issued by NWS

Home | Current Version | Previous Version | Text Only | Print | Product List | Glossary Off
Versions: 1 2 3 4 5 6 7 8 9 10 11 12 13 14 15 16 17 18

069
FTUS42 KMHX 301043 AAA
TAFPGV
TAF AMD
KPGV 301043Z 3011/0106 20008KT P6SM SCT010 BKN020
      TEMPO 3011/3013 5SM BR BKN008
     FM301500 20012G24KT P6SM BKN040
     FM010300 21012G22KT 5SM SHRA SCT010 BKN025
      AMD LTD TO CLD VIS AND WIND=

USA.gov is the U.S. government's official web portal to all federal, state and local government web resources and services.